createdAt,value
2022-10-30T10:58:18.157Z,16.48
2022-10-30T11:00:47.056Z,16.56
2022-10-30T11:03:18.852Z,16.68
2022-10-30T11:05:52.562Z,16.85
2022-10-30T11:08:24.362Z,16.96
2022-10-30T11:10:58.486Z,17.14
2022-10-30T11:13:31.279Z,17.26
2022-10-30T11:16:07.603Z,17.38
2022-10-30T11:18:36.366Z,17.56
2022-10-30T11:21:09.141Z,17.64
2022-10-30T11:23:41.903Z,17.72
2022-10-30T11:26:29.532Z,17.80
2022-10-30T11:29:04.594Z,17.88
2022-10-30T11:31:38.034Z,17.94
2022-10-30T11:34:24.446Z,18.03
2022-10-30T11:36:54.063Z,18.15
2022-10-30T11:39:24.026Z,18.21
2022-10-30T11:41:58.828Z,18.26
2022-10-30T11:44:31.433Z,18.35
2022-10-30T11:46:59.959Z,18.38
2022-10-30T11:49:34.817Z,18.40
2022-10-30T11:52:03.750Z,18.50
2022-10-30T11:54:37.725Z,18.54
2022-10-30T11:57:08.000Z,18.58
2022-10-30T11:59:37.464Z,18.67
2022-10-30T12:02:22.201Z,18.69
2022-10-30T12:04:51.887Z,18.67
2022-10-30T12:07:26.331Z,18.70
2022-10-30T12:09:54.397Z,18.72
2022-10-30T12:12:29.536Z,18.77
2022-10-30T12:15:09.934Z,18.82
2022-10-30T12:17:40.121Z,18.83
2022-10-30T12:20:09.575Z,18.89
2022-10-30T12:22:37.681Z,18.97
2022-10-30T12:25:16.758Z,18.94
2022-10-30T12:27:44.871Z,19.04
2022-10-30T12:30:19.320Z,19.11
2022-10-30T12:32:53.519Z,19.07
2022-10-30T12:35:39.414Z,19.14
2022-10-30T12:38:16.774Z,19.23
2022-10-30T12:40:53.978Z,19.27
2022-10-30T12:43:27.396Z,19.21
2022-10-30T12:46:09.181Z,19.21
2022-10-30T12:48:45.170Z,19.25
2022-10-30T12:51:23.971Z,19.27
2022-10-30T12:53:59.186Z,19.28
2022-10-30T12:56:33.425Z,19.23
2022-10-30T12:59:22.032Z,19.29
2022-10-30T13:01:57.645Z,19.29
2022-10-30T13:04:29.022Z,19.41
2022-10-30T13:07:03.643Z,19.53
2022-10-30T13:09:40.238Z,19.64
2022-10-30T13:12:14.552Z,19.75
2022-10-30T13:14:47.678Z,19.85
2022-10-30T13:17:17.450Z,20.01
2022-10-30T13:19:48.319Z,20.08
2022-10-30T13:22:23.899Z,20.08
2022-10-30T13:25:03.894Z,20.20
2022-10-30T13:27:41.095Z,20.26
2022-10-30T13:30:14.413Z,20.31
2022-10-30T13:32:56.994Z,20.40
2022-10-30T13:35:34.499Z,20.48
2022-10-30T13:38:12.342Z,20.59
2022-10-30T13:40:45.676Z,20.49
2022-10-30T13:43:26.363Z,20.49
2022-10-30T13:46:15.859Z,20.51
2022-10-30T13:48:58.201Z,20.62
2022-10-30T13:51:41.021Z,20.73
2022-10-30T13:54:18.289Z,20.86
2022-10-30T13:56:48.626Z,20.99
2022-10-30T13:59:27.561Z,20.98
2022-10-30T14:02:03.414Z,21.02
2022-10-30T14:04:36.770Z,21.13
2022-10-30T14:07:17.869Z,21.10
2022-10-30T14:09:55.814Z,21.08
2022-10-30T14:12:45.907Z,21.09
2022-10-30T14:15:28.082Z,21.12
2022-10-30T14:18:25.617Z,21.20
2022-10-30T14:20:56.686Z,21.20
2022-10-30T14:23:26.883Z,21.21
2022-10-30T14:28:39.174Z,21.23
2022-10-30T14:31:10.161Z,21.15
2022-10-30T14:33:49.973Z,21.05
2022-10-30T14:36:22.575Z,20.97
2022-10-30T14:38:56.110Z,20.95
2022-10-30T14:41:51.831Z,21.00
2022-10-30T14:44:48.125Z,21.05
2022-10-30T14:47:56.875Z,20.98
2022-10-30T14:50:38.372Z,20.88
2022-10-30T14:53:30.921Z,20.79
2022-10-30T14:56:07.654Z,20.75
2022-10-30T14:58:37.848Z,20.73
2022-10-30T15:01:29.016Z,20.75
2022-10-30T15:04:16.061Z,20.77
2022-10-30T15:06:57.081Z,20.70
2022-10-30T15:09:39.659Z,20.69
2022-10-30T15:12:35.417Z,20.64
2022-10-30T15:15:05.737Z,20.52
2022-10-30T15:17:40.162Z,20.53
2022-10-30T15:20:15.652Z,20.62
2022-10-30T15:22:44.285Z,20.67
2022-10-30T15:25:19.272Z,20.72
2022-10-30T15:27:48.893Z,20.63
2022-10-30T15:30:19.121Z,20.52
2022-10-30T15:32:47.451Z,20.45
2022-10-30T15:35:18.488Z,20.41
2022-10-30T15:38:02.397Z,20.40
2022-10-30T15:40:32.631Z,20.40
2022-10-30T15:43:02.998Z,20.32
2022-10-30T15:45:35.470Z,20.36
2022-10-30T15:48:08.515Z,20.39
2022-10-30T15:50:39.228Z,20.44
2022-10-30T15:53:08.267Z,20.37
2022-10-30T15:55:37.631Z,20.22
2022-10-30T15:58:06.611Z,20.00
2022-10-30T16:00:36.340Z,19.83
2022-10-30T16:03:06.358Z,19.70
2022-10-30T16:05:35.416Z,19.71
2022-10-30T16:08:05.070Z,19.63
2022-10-30T16:10:35.582Z,19.49
2022-10-30T16:13:05.262Z,19.36
2022-10-30T16:15:35.809Z,19.28
2022-10-30T16:18:09.676Z,19.16
2022-10-30T16:20:41.322Z,19.07
2022-10-30T16:23:09.463Z,18.87
2022-10-30T16:25:41.782Z,18.70
2022-10-30T16:28:31.441Z,18.49
2022-10-30T16:31:03.051Z,18.40
2022-10-30T16:33:33.107Z,18.33
2022-10-30T16:36:03.290Z,18.20
2022-10-30T16:38:35.211Z,18.13
2022-10-30T16:41:05.351Z,18.06
2022-10-30T16:43:35.936Z,18.00
2022-10-30T16:46:39.348Z,17.88
2022-10-30T16:49:15.128Z,17.80
2022-10-30T16:51:44.346Z,17.77
2022-10-30T16:54:24.418Z,17.72
2022-10-30T16:56:54.973Z,17.67
2022-10-30T16:59:33.031Z,17.59
2022-10-30T17:02:06.059Z,17.49
2022-10-30T17:04:36.039Z,17.42
2022-10-30T17:07:16.571Z,17.37
2022-10-30T17:09:44.501Z,17.32
2022-10-30T17:12:16.157Z,17.27
2022-10-30T17:14:54.560Z,17.22
2022-10-30T17:17:31.978Z,17.18
2022-10-30T17:20:03.510Z,17.14
2022-10-30T17:22:32.314Z,17.12
2022-10-30T17:25:01.131Z,17.10
2022-10-30T17:27:46.715Z,17.04
2022-10-30T17:30:40.238Z,17.03
2022-10-30T17:33:27.127Z,16.96
2022-10-30T17:38:27.934Z,16.91
2022-10-30T17:40:56.024Z,16.95
2022-10-30T17:43:27.101Z,16.95
2022-10-30T17:45:56.960Z,16.96
2022-10-30T17:48:28.192Z,16.94
2022-10-30T17:50:56.315Z,16.94
2022-10-30T17:53:27.871Z,16.93
2022-10-30T17:56:00.739Z,16.92
2022-10-30T17:58:30.847Z,16.89
2022-10-30T18:01:00.774Z,16.90
2022-10-30T18:03:29.378Z,16.88
2022-10-30T18:05:58.711Z,16.89
2022-10-30T18:08:26.647Z,16.86
2022-10-30T18:10:54.791Z,16.83
2022-10-30T18:13:22.752Z,16.81
2022-10-30T18:15:55.599Z,16.78
2022-10-30T18:18:24.933Z,16.76
2022-10-30T18:20:52.831Z,16.77
2022-10-30T18:26:16.428Z,16.75
2022-10-30T18:28:44.559Z,16.73
2022-10-30T18:31:14.398Z,16.70
2022-10-30T18:33:45.138Z,16.66
2022-10-30T18:36:15.531Z,16.63
2022-10-30T18:38:43.893Z,16.59
2022-10-30T18:41:16.754Z,16.61
2022-10-30T18:43:46.947Z,16.63
2022-10-30T18:46:16.610Z,16.64
2022-10-30T18:48:46.491Z,16.63
2022-10-30T18:51:18.082Z,16.62
2022-10-30T18:53:51.910Z,16.62
2022-10-30T18:56:20.688Z,16.64
2022-10-30T18:58:48.788Z,16.66
2022-10-30T19:01:18.083Z,16.67
2022-10-30T19:03:48.299Z,16.65
2022-10-30T19:06:18.871Z,16.62
2022-10-30T19:08:47.509Z,16.59
2022-10-30T19:11:20.362Z,16.59
2022-10-30T19:13:52.353Z,16.54
2022-10-30T19:16:21.258Z,16.53
2022-10-30T19:18:50.747Z,16.52
2022-10-30T19:21:20.898Z,16.49
2022-10-30T19:23:49.148Z,16.45
2022-10-30T19:26:17.687Z,16.38
2022-10-30T19:28:46.164Z,16.34
2022-10-30T19:31:15.269Z,16.27
2022-10-30T19:33:43.270Z,16.24
2022-10-30T19:36:28.849Z,15.98
2022-10-30T19:38:57.183Z,15.89
2022-10-30T19:41:25.334Z,15.83
2022-10-30T19:43:53.651Z,15.92
2022-10-30T19:46:22.208Z,15.95
2022-10-30T19:48:58.654Z,15.95
2022-10-30T19:51:28.629Z,15.92
2022-10-30T19:53:56.914Z,15.90
2022-10-30T19:56:25.198Z,15.87
2022-10-30T19:58:53.115Z,15.84
2022-10-30T20:01:21.140Z,15.80
2022-10-30T20:03:49.219Z,15.81
2022-10-30T20:06:17.232Z,15.76
2022-10-30T20:08:46.502Z,15.77
2022-10-30T20:11:14.488Z,15.74
2022-10-30T20:13:42.433Z,15.68
2022-10-30T20:16:12.227Z,15.70
2022-10-30T20:18:40.293Z,15.75
2022-10-30T20:21:12.033Z,15.72
2022-10-30T20:23:40.377Z,15.72
2022-10-30T20:26:24.525Z,15.75
2022-10-30T20:28:53.285Z,15.77
2022-10-30T20:31:21.515Z,15.80
2022-10-30T20:33:49.530Z,15.82
2022-10-30T20:36:17.505Z,15.83
2022-10-30T20:38:45.429Z,15.81
2022-10-30T20:41:22.226Z,15.78
2022-10-30T20:43:51.084Z,15.77
2022-10-30T20:46:19.711Z,15.79
2022-10-30T20:48:47.989Z,15.77
2022-10-30T20:51:16.017Z,15.76
2022-10-30T20:53:44.008Z,15.73
2022-10-30T20:56:12.409Z,15.72
2022-10-30T20:58:42.045Z,15.69
2022-10-30T21:01:10.867Z,15.67
2022-10-30T21:03:39.029Z,15.71
2022-10-30T21:06:09.701Z,15.69
2022-10-30T21:08:37.976Z,15.67
2022-10-30T21:11:07.733Z,15.66
2022-10-30T21:13:36.170Z,15.64
2022-10-30T21:16:08.477Z,15.62
2022-10-30T21:18:36.733Z,15.60
2022-10-30T21:21:06.499Z,15.59
2022-10-30T21:23:34.591Z,15.57
2022-10-30T21:26:03.285Z,15.55
2022-10-30T21:28:31.381Z,15.55
2022-10-30T21:31:02.448Z,15.54
2022-10-30T21:33:33.158Z,15.53
2022-10-30T21:36:11.672Z,15.52
2022-10-30T21:38:41.581Z,15.49
2022-10-30T21:41:10.056Z,15.48
2022-10-30T21:43:37.971Z,15.44
2022-10-30T21:46:07.445Z,15.46
2022-10-30T21:48:37.140Z,15.44
2022-10-30T21:51:10.579Z,15.41
2022-10-30T21:53:38.908Z,15.40
2022-10-30T21:56:08.909Z,15.39
2022-10-30T21:58:37.222Z,15.38
2022-10-30T22:01:06.505Z,15.36
2022-10-30T22:03:36.493Z,15.34
2022-10-30T22:06:08.774Z,15.33
2022-10-30T22:08:36.791Z,15.31
2022-10-30T22:11:05.793Z,15.31
2022-10-30T22:13:33.966Z,15.33
2022-10-30T22:16:02.467Z,15.34
2022-10-30T22:18:30.863Z,15.34
2022-10-30T22:21:06.202Z,15.28
2022-10-30T22:23:35.057Z,15.30
2022-10-30T22:26:05.055Z,15.29
2022-10-30T22:28:34.543Z,15.30
2022-10-30T22:31:03.972Z,15.24
2022-10-30T22:33:32.661Z,15.25
2022-10-30T22:36:07.651Z,15.28
2022-10-30T22:38:36.122Z,15.27
2022-10-30T22:41:11.575Z,15.23
2022-10-30T22:43:39.833Z,15.25
2022-10-30T22:46:08.279Z,15.27
2022-10-30T22:48:36.267Z,15.28
2022-10-30T22:51:11.874Z,15.25
2022-10-30T22:53:45.398Z,15.19
2022-10-30T22:56:16.162Z,15.11
2022-10-30T22:58:44.880Z,15.09
2022-10-30T23:01:14.822Z,15.14
2022-10-30T23:03:43.363Z,15.10
2022-10-30T23:06:13.512Z,15.11
2022-10-30T23:08:41.666Z,15.11
2022-10-30T23:11:09.936Z,15.09
2022-10-30T23:13:38.261Z,15.05
2022-10-30T23:16:09.028Z,15.08
2022-10-30T23:18:36.991Z,15.00
2022-10-30T23:21:08.033Z,14.97
2022-10-30T23:23:38.282Z,14.96
2022-10-30T23:26:08.207Z,14.95
2022-10-30T23:28:36.598Z,14.89
2022-10-30T23:31:05.352Z,14.84
2022-10-30T23:33:33.523Z,14.87
2022-10-30T23:36:01.563Z,14.83
2022-10-30T23:38:29.708Z,14.79
2022-10-30T23:40:59.116Z,14.79
2022-10-30T23:43:27.049Z,14.80
2022-10-30T23:45:54.976Z,14.84
2022-10-30T23:48:22.910Z,14.83
2022-10-30T23:50:50.843Z,14.83
2022-10-30T23:53:18.835Z,14.80
2022-10-30T23:55:53.334Z,14.76
2022-10-30T23:58:23.053Z,14.75
